Time;durP1;ratioP1;P1;durP2;ratioP2;P2;SDS_P1;SDS_P2;PMS_P1;PMS_P2;Temp;Humidity;BMP_temperature;BMP_pressure;BME280_temperature;BME280_humidity;BME280_pressure;Samples;Min_cycle;Max_cycle;Signal;HPM_P1;HPM_P2
2021/04/09 00:01:36;;;;;;;36.17;23.70;;;154.00;1612.80;;;;;;4992941;28;20046;-66
2021/04/09 00:04:02;;;;;;;30.77;18.15;;;154.40;1561.60;;;;;;4993133;28;20433;-70
2021/04/09 00:06:28;;;;;;;28.40;17.10;;;154.00;1612.80;;;;;;4992813;28;20054;-67
2021/04/09 00:08:53;;;;;;;29.90;18.48;;;154.10;1817.60;;;;;;4973512;28;20101;-67
2021/04/09 00:11:19;;;;;;;29.80;17.45;;;154.20;1561.60;;;;;;4974065;28;20031;-73
2021/04/09 00:13:45;;;;;;;28.80;16.13;;;154.20;1561.60;;;;;;4992594;28;20018;-70
2021/04/09 00:16:10;;;;;;;26.55;16.80;;;154.00;1612.80;;;;;;4992698;28;20097;-73
2021/04/09 00:18:36;;;;;;;31.35;20.25;;;;;;;;;;4975208;28;20026;-67
2021/04/09 00:21:03;;;;;;;32.67;19.95;;;;;;;;;;4992350;28;20022;-66
2021/04/09 00:23:29;;;;;;;45.70;23.48;;;;;;;;;;4974643;28;20177;-66
2021/04/09 00:25:55;;;;;;;38.10;22.30;;;;;;;;;;4992013;28;20058;-66
2021/04/09 00:28:21;;;;;;;35.60;21.35;;;;;;;;;;4992477;28;20043;-72
2021/04/09 00:30:47;;;;;;;33.25;20.02;;;;;;;;;;4992523;28;20046;-71
2021/04/09 00:33:13;;;;;;;40.65;23.52;;;;;;;;;;4975196;28;20113;-71
2021/04/09 00:35:39;;;;;;;40.10;24.55;;;;;;;;;;4992666;28;20596;-66
2021/04/09 00:38:05;;;;;;;38.08;21.65;;;;;;;;;;4992283;28;20023;-68
2021/04/09 00:40:31;;;;;;;24.92;16.17;;;;;;;;;;4985950;28;20022;-67
2021/04/09 00:42:57;;;;;;;37.33;20.80;;;;;;;;;;4992095;28;20556;-66
2021/04/09 00:45:23;;;;;;;33.08;19.02;;;;;;;;;;4992107;28;20493;-66
2021/04/09 00:47:50;;;;;;;32.38;23.10;;;;;;;;;;4992256;28;20026;-66
2021/04/09 00:50:16;;;;;;;29.98;20.90;;;;;;;;;;4992137;28;20034;-66
2021/04/09 00:52:43;;;;;;;43.47;20.35;;;;;;;;;;4992106;28;20030;-66
2021/04/09 00:55:10;;;;;;;39.08;21.33;;;;;;;;;;4992031;28;20034;-65
2021/04/09 00:57:36;;;;;;;146.07;73.57;;;;;;;;;;4992022;28;20085;-67
2021/04/09 01:00:07;;;;;;;92.05;42.92;;;;;;;;;;4994168;28;20072;-73
2021/04/09 01:02:33;;;;;;;58.55;29.77;;;;;;;;;;4995768;28;20034;-64
2021/04/09 01:04:59;;;;;;;103.80;48.42;;;;;;;;;;4972940;28;20107;-67
2021/04/09 01:07:26;;;;;;;113.45;60.33;;;;;;;;;;4960229;28;20027;-69
2021/04/09 01:09:53;;;;;;;41.00;23.58;;;;;;;;;;4958827;28;20082;-69
2021/04/09 01:12:19;;;;;;;33.97;20.75;;;;;;;;;;4959819;28;20026;-69
2021/04/09 01:14:45;;;;;;;91.05;40.15;;;;;;;;;;4958875;28;20063;-68
2021/04/09 01:17:29;;;;;;;97.28;38.95;;;;;;;;;;4959947;28;20027;-69
2021/04/09 01:19:58;;;;;;;65.68;33.08;;;;;;;;;;4958765;28;20497;-69
2021/04/09 01:22:26;;;;;;;54.33;30.35;;;;;;;;;;4959886;28;20031;-70
2021/04/09 01:24:52;;;;;;;46.65;29.25;;;;;;;;;;4950038;28;20054;-70
2021/04/09 01:27:47;;;;;;;49.85;30.58;;;;;;;;;;4978660;28;20114;-69
2021/04/09 01:30:13;;;;;;;53.35;30.83;;;;;;;;;;4915608;29;20527;-69
2021/04/09 01:32:40;;;;;;;70.20;37.72;;;;;;;;;;4914358;29;20024;-69
2021/04/09 01:35:10;;;;;;;65.18;39.30;;;;;;;;;;4915539;29;20040;-69
2021/04/09 01:37:40;;;;;;;68.45;38.83;;;;;;;;;;4914187;29;20028;-69
2021/04/09 01:40:17;;;;;;;54.80;32.15;;;;;;;;;;4915639;29;20059;-69
2021/04/09 01:42:46;;;;;;;78.40;40.58;;;154.00;1587.20;;;;;;4906581;29;20035;-68
2021/04/09 01:45:13;;;;;;;165.15;68.75;;;153.90;1612.80;;;;;;4916629;29;20027;-70
2021/04/09 01:47:42;;;;;;;61.42;34.35;;;153.70;1638.40;;;;;;4916862;29;20044;-69
2021/04/09 01:50:13;;;;;;;35.85;20.90;;;128.90;1664.00;;;;;;4916451;29;20147;-66
2021/04/09 01:52:41;;;;;;;38.58;21.60;;;128.90;1664.00;;;;;;4916749;29;20028;-68
2021/04/09 01:55:09;;;;;;;32.38;20.40;;;154.00;1612.80;;;;;;4916567;29;20032;-69
2021/04/09 01:57:37;;;;;;;39.72;22.38;;;154.30;1587.20;;;;;;4916689;29;20032;-70
2021/04/09 02:00:04;;;;;;;36.33;21.33;;;154.10;1612.80;;;;;;4916701;29;20071;-70
2021/04/09 02:02:30;;;;;;;37.45;20.00;;;153.80;1638.40;;;;;;4916379;29;20047;-69
2021/04/09 02:04:59;;;;;;;41.85;23.77;;;154.10;1587.20;;;;;;4916617;29;20040;-70
2021/04/09 02:07:26;;;;;;;53.03;29.35;;;154.40;1561.60;;;;;;4974168;28;20084;-67
2021/04/09 02:09:53;;;;;;;54.00;30.45;;;154.40;1561.60;;;;;;5014816;28;20030;-70
2021/04/09 02:12:20;;;;;;;48.25;28.63;;;154.50;1536.00;;;;;;5014745;28;20025;-70
2021/04/09 02:14:46;;;;;;;48.33;28.95;;;154.50;1561.60;;;;;;5014900;28;20036;-70
2021/04/09 02:17:12;;;;;;;49.20;28.23;;;154.10;1612.80;;;;;;5014747;28;20440;-67
2021/04/09 02:19:42;;;;;;;45.75;29.33;;;154.20;1587.20;;;;;;4996908;28;20408;-70
2021/04/09 02:22:10;;;;;;;42.50;23.73;;;154.40;1561.60;;;;;;5015103;28;20366;-70
2021/04/09 02:24:37;;;;;;;33.15;20.60;;;154.40;1561.60;;;;;;5014318;28;20053;-70
2021/04/09 02:27:06;;;;;;;31.92;17.90;;;154.30;1561.60;;;;;;5014291;28;20034;-70
2021/04/09 02:29:33;;;;;;;34.70;20.33;;;154.30;1561.60;;;;;;5014447;28;20045;-70
2021/04/09 02:31:59;;;;;;;51.58;28.25;;;;;;;;;;5014430;28;20372;-69
2021/04/09 02:34:26;;;;;;;54.00;30.77;;;153.90;1612.80;;;;;;5014409;28;20026;-70
2021/04/09 02:36:53;;;;;;;56.13;27.30;;;154.00;1612.80;;;;;;5014497;28;20044;-69
2021/04/09 02:39:22;;;;;;;41.10;24.15;;;153.80;1638.40;;;;;;5014292;28;20061;-70
2021/04/09 02:41:54;;;;;;;37.55;20.73;;;154.00;1612.80;;;;;;5014210;28;20028;-69
2021/04/09 02:44:20;;;;;;;;;;;;;;;;;;5014693;28;20037;-68
2021/04/09 02:46:46;;;;;;;41.90;23.83;;;;;;;;;;5014004;28;19905;-69
2021/04/09 02:49:39;;;;;;;36.80;19.75;;;128.90;1664.00;;;;;;5014002;28;20091;-70
2021/04/09 02:52:08;;;;;;;39.28;20.63;;;153.70;1638.40;;;;;;5010021;28;20035;-70
2021/04/09 02:54:35;;;;;;;52.20;26.80;;;153.90;1612.80;;;;;;5004381;28;20037;-70
2021/04/09 02:57:03;;;;;;;45.90;25.98;;;154.00;1612.80;;;;;;5013918;28;20377;-69
2021/04/09 02:59:30;;;;;;;47.25;27.00;;;154.10;1612.80;;;;;;5013970;28;20026;-71
2021/04/09 03:01:57;;;;;;;45.10;25.40;;;154.50;1587.20;;;;;;5013894;28;20056;-70
2021/04/09 03:04:23;;;;;;;54.97;29.35;;;154.00;1587.20;;;;;;5013953;28;20030;-69
2021/04/09 03:06:49;;;;;;;55.90;29.60;;;153.90;1612.80;;;;;;5013937;28;20029;-70
2021/04/09 03:09:15;;;;;;;52.42;26.75;;;153.80;1638.40;;;;;;5013636;28;20026;-69
2021/04/09 03:11:44;;;;;;;51.05;27.05;;;153.60;1664.00;;;;;;5013819;28;20026;-68
2021/04/09 03:14:11;;;;;;;30.77;17.73;;;;;;;;;;5013516;28;20026;-71
2021/04/09 03:16:57;;;;;;;29.10;18.80;;;;;;;;;;5013667;28;20021;-70
2021/04/09 03:19:23;;;;;;;31.83;17.77;;;103.30;1766.40;;;;;;5013264;28;20025;-70
2021/04/09 03:21:49;;;;;;;33.25;16.50;;;103.30;1766.40;;;;;;5013208;28;20149;-70
2021/04/09 03:24:14;;;;;;;29.50;18.25;;;128.10;1766.40;;;;;;5013109;28;20378;-65
2021/04/09 03:26:40;;;;;;;29.80;18.00;;;128.00;1792.00;;;;;;5013350;28;20080;-70
2021/04/09 03:29:06;;;;;;;29.77;17.20;;;103.30;1766.40;;;;;;5013155;28;20116;-70
2021/04/09 03:31:34;;;;;;;33.92;20.25;;;128.10;1792.00;;;;;;5013562;28;20495;-70
2021/04/09 03:33:59;;;;;;;31.45;19.35;;;128.20;1766.40;;;;;;5013343;28;20036;-70
2021/04/09 03:36:25;;;;;;;32.58;20.55;;;103.10;1817.60;;;;;;5013327;28;20096;-70
2021/04/09 03:38:50;;;;;;;42.78;25.77;;;128.10;1792.00;;;;;;5013334;28;20499;-70
2021/04/09 03:41:16;;;;;;;44.60;25.55;;;128.30;1766.40;;;;;;5013152;28;20033;-70
2021/04/09 03:43:42;;;;;;;50.10;28.67;;;128.60;1715.20;;;;;;5013051;28;20013;-70
2021/04/09 03:46:08;;;;;;;48.78;29.70;;;128.70;1715.20;;;;;;5013140;28;20037;-70
2021/04/09 03:48:35;;;;;;;56.55;33.45;;;;;;;;;;5010238;28;20759;-71
2021/04/09 03:51:02;;;;;;;63.78;36.58;;;128.50;1766.40;;;;;;5002417;28;20025;-70
2021/04/09 03:53:27;;;;;;;62.78;36.25;;;128.30;1792.00;;;;;;5012859;28;20037;-70
2021/04/09 03:55:53;;;;;;;63.33;35.05;;;;;;;;;;5013091;28;20377;-70
2021/04/09 03:58:20;;;;;;;77.63;40.45;;;;;;;;;;5012735;28;20025;-68
2021/04/09 04:00:46;;;;;;;74.32;42.47;;;;;;;;;;5012953;28;20017;-71
2021/04/09 04:03:12;;;;;;;71.55;39.13;;;;;;;;;;5012898;28;20049;-71
2021/04/09 04:05:37;;;;;;;77.53;43.58;;;128.90;1689.60;;;;;;5012652;28;20057;-68
2021/04/09 04:08:03;;;;;;;84.22;44.95;;;128.70;1689.60;;;;;;5012700;28;20089;-71
2021/04/09 04:10:29;;;;;;;78.13;43.83;;;128.80;1664.00;;;;;;5012605;28;20032;-72
2021/04/09 04:12:55;;;;;;;83.30;47.15;;;128.70;1689.60;;;;;;5012675;28;20022;-68
2021/04/09 04:15:20;;;;;;;92.55;58.60;;;128.80;1689.60;;;;;;5012604;28;20066;-67
2021/04/09 04:17:46;;;;;;;135.77;91.18;;;153.70;1664.00;;;;;;5012550;28;20136;-70
2021/04/09 04:20:12;;;;;;;127.50;90.63;;;153.70;1664.00;;;;;;5012755;28;20446;-73
2021/04/09 04:22:38;;;;;;;117.78;76.88;;;153.60;1664.00;;;;;;5012603;28;20049;-73
2021/04/09 04:25:05;;;;;;;107.18;62.00;;;128.90;1689.60;;;;;;5012342;28;20081;-73
2021/04/09 04:27:30;;;;;;;97.45;54.70;;;153.70;1664.00;;;;;;5012255;28;20117;-73
2021/04/09 04:29:56;;;;;;;161.45;84.35;;;153.80;1638.40;;;;;;5012512;28;20421;-73
2021/04/09 04:32:22;;;;;;;160.38;86.88;;;153.80;1638.40;;;;;;5012801;28;20026;-72
2021/04/09 04:34:48;;;;;;;135.02;79.65;;;153.90;1612.80;;;;;;5013729;28;20053;-71
2021/04/09 04:37:13;;;;;;;140.93;88.13;;;153.70;1638.40;;;;;;5016525;28;20026;-70
2021/04/09 04:39:39;;;;;;;116.53;72.63;;;128.90;1664.00;;;;;;4998751;28;20041;-67
2021/04/09 04:42:05;;;;;;;105.80;74.45;;;153.60;1664.00;;;;;;5016368;28;20137;-67
2021/04/09 04:44:31;;;;;;;101.15;66.28;;;153.70;1664.00;;;;;;5016242;28;20029;-70
2021/04/09 04:46:57;;;;;;;82.28;52.30;;;153.80;1638.40;;;;;;5016195;28;20018;-68
2021/04/09 04:49:22;;;;;;;77.97;47.05;;;153.90;1664.00;;;;;;5016468;28;20045;-69
2021/04/09 04:51:48;;;;;;;73.80;43.33;;;154.10;1612.80;;;;;;5016228;28;20036;-70
2021/04/09 04:54:15;;;;;;;74.75;42.08;;;;;;;;;;5008662;28;20038;-67
2021/04/09 04:56:40;;;;;;;75.47;42.03;;;154.50;1561.60;;;;;;5009820;28;20026;-69
2021/04/09 04:59:06;;;;;;;64.82;36.60;;;154.50;1587.20;;;;;;5015879;28;20018;-69
2021/04/09 05:01:32;;;;;;;47.08;28.05;;;154.50;1587.20;;;;;;5016176;28;20022;-67
2021/04/09 05:03:57;;;;;;;58.17;32.83;;;154.40;1587.20;;;;;;5015939;28;20029;-69
2021/04/09 05:06:23;;;;;;;57.22;29.67;;;154.50;1587.20;;;;;;5016000;28;20487;-69
2021/04/09 05:08:49;;;;;;;64.32;33.63;;;154.40;1587.20;;;;;;5015696;28;20038;-67
2021/04/09 05:11:15;;;;;;;31.77;17.60;;;154.50;1561.60;;;;;;5015973;28;20022;-69
2021/04/09 05:13:40;;;;;;;37.10;19.75;;;154.50;1561.60;;;;;;5015685;28;20021;-69
2021/04/09 05:16:06;;;;;;;34.20;16.63;;;154.50;1561.60;;;;;;4998275;28;20022;-71
2021/04/09 05:18:32;;;;;;;25.92;14.88;;;179.70;1587.20;;;;;;5015975;28;20025;-70
2021/04/09 05:20:58;;;;;;;34.53;19.80;;;;;;;;;;5015722;28;20487;-66
2021/04/09 05:23:24;;;;;;;48.70;25.70;;;;;;;;;;5015658;28;20037;-70
2021/04/09 05:25:51;;;;;;;35.42;18.85;;;;;;;;;;5015240;28;20058;-70
2021/04/09 05:28:17;;;;;;;53.55;30.95;;;;;;;;;;4997285;28;20034;-67
2021/04/09 05:30:42;;;;;;;31.55;19.23;;;180.10;1459.20;;;;;;5015285;28;20026;-71
2021/04/09 05:33:08;;;;;;;68.05;43.35;;;180.10;1459.20;;;;;;5015461;28;20495;-71
2021/04/09 05:35:34;;;;;;;50.90;32.22;;;180.00;1459.20;;;;;;5015339;28;20026;-67
2021/04/09 05:38:00;;;;;;;24.63;13.70;;;;;;;;;;5015181;28;20030;-67
2021/04/09 05:40:26;;;;;;;24.88;15.15;;;;;;;;;;5015258;28;20030;-69
2021/04/09 05:42:57;;;;;;;24.98;15.38;;;205.10;1408.00;;;;;;5015091;28;20026;-71
2021/04/09 05:45:23;;;;;;;24.02;16.27;;;;;;;;;;5014403;28;20072;-69
2021/04/09 05:47:49;;;;;;;33.60;17.25;;;205.30;1382.40;;;;;;5015211;28;20080;-68
2021/04/09 05:50:14;;;;;;;20.92;14.52;;;205.50;1408.00;;;;;;5014898;28;20420;-70
2021/04/09 05:52:40;;;;;;;28.63;16.23;;;205.60;1382.40;;;;;;5015220;28;20361;-67
2021/04/09 05:55:08;;;;;;;47.00;24.50;;;;;;;;;;5014803;28;20026;-70
2021/04/09 05:57:34;;;;;;;66.57;38.25;;;230.40;1382.40;;;;;;5014964;28;20077;-71
2021/04/09 06:00:00;;;;;;;49.40;28.52;;;230.50;1382.40;;;;;;5013540;28;20026;-71
2021/04/09 06:02:25;;;;;;;65.13;33.30;;;230.60;1356.80;;;;;;5014600;28;20033;-70
2021/04/09 06:04:51;;;;;;;59.38;31.60;;;230.60;1715.20;;;;;;5014935;28;20021;-70
2021/04/09 06:07:17;;;;;;;65.97;33.00;;;;;;;;;;5014568;28;20029;-70
2021/04/09 06:09:43;;;;;;;68.75;37.45;;;230.90;1331.20;;;;;;5014520;28;20034;-69
2021/04/09 06:12:09;;;;;;;51.47;32.42;;;231.00;1331.20;;;;;;5014522;28;20029;-70
2021/04/09 06:14:35;;;;;;;42.05;24.58;;;231.20;1280.00;;;;;;5014346;28;20381;-71
2021/04/09 06:17:02;;;;;;;30.40;19.42;;;231.10;1280.00;;;;;;5014608;28;20029;-68
2021/04/09 06:19:28;;;;;;;37.92;21.95;;;230.70;1305.60;;;;;;5014385;28;20100;-69
2021/04/09 06:21:54;;;;;;;41.80;24.63;;;230.80;1305.60;;;;;;5014726;28;20120;-69
2021/04/09 06:24:19;;;;;;;42.25;23.30;;;230.90;1305.60;;;;;;5014044;28;20141;-70
2021/04/09 06:26:45;;;;;;;44.08;24.88;;;231.00;1305.60;;;;;;5014394;28;20033;-68
2021/04/09 06:29:11;;;;;;;54.05;25.20;;;231.00;1305.60;;;;;;5014016;28;20080;-70
2021/04/09 06:31:37;;;;;;;40.92;24.40;;;231.20;1280.00;;;;;;4998208;28;20049;-71
2021/04/09 06:34:02;;;;;;;50.05;29.08;;;231.30;1280.00;;;;;;4982752;28;20072;-69
2021/04/09 06:36:28;;;;;;;46.20;25.55;;;231.30;1280.00;;;;;;4980151;28;20168;-70
2021/04/09 06:38:54;;;;;;;40.05;25.48;;;231.20;1280.00;;;;;;5002645;28;20026;-69
2021/04/09 06:41:20;;;;;;;42.05;25.40;;;256.10;1280.00;;;;;;4981990;28;20109;-70
2021/04/09 06:43:46;;;;;;;41.30;24.63;;;;;;;;;;5012412;28;20030;-69
2021/04/09 06:46:12;;;;;;;39.97;23.30;;;256.70;1228.80;;;;;;5013828;28;20026;-69
2021/04/09 06:48:38;;;;;;;49.90;25.70;;;256.50;1203.20;;;;;;5013755;28;20084;-69
2021/04/09 06:51:05;;;;;;;47.08;28.15;;;256.50;1228.80;;;;;;5013788;28;20485;-69
2021/04/09 06:53:31;;;;;;;20.33;11.40;;;281.70;1254.40;;;;;;5013579;28;20539;-68
2021/04/09 06:55:57;;;;;;;30.60;17.50;;;281.70;1126.40;;;;;;5013742;28;20037;-69
2021/04/09 06:58:24;;;;;;;49.42;28.17;;;281.80;1177.60;;;;;;5012789;28;20026;-68
2021/04/09 07:00:52;;;;;;;26.80;15.60;;;282.00;1203.20;;;;;;5013470;28;20029;-69
2021/04/09 07:03:18;;;;;;;29.15;17.85;;;282.00;1152.00;;;;;;5013635;28;20018;-68
2021/04/09 07:05:44;;;;;;;10.52;7.63;;;282.20;1152.00;;;;;;5013349;28;20026;-69
2021/04/09 07:08:09;;;;;;;7.05;5.28;;;282.50;1100.80;;;;;;5013360;28;20022;-69
2021/04/09 07:10:35;;;;;;;27.48;19.30;;;282.40;1024.00;;;;;;5013283;28;20021;-69
2021/04/09 07:13:03;;;;;;;20.17;9.48;;;282.20;1024.00;;;;;;5013539;28;20206;-69
2021/04/09 07:15:36;;;;;;;9.70;5.53;;;282.30;998.40;;;;;;5013106;28;20675;-68
2021/04/09 07:18:03;;;;;;;14.38;7.53;;;307.20;1024.00;;;;;;5012814;28;20029;-68
2021/04/09 07:20:33;;;;;;;11.27;7.22;;;;;;;;;;5013392;28;20479;-69
2021/04/09 07:22:59;;;;;;;22.55;14.00;;;;;;;;;;5013219;28;20520;-69
2021/04/09 07:25:35;;;;;;;14.05;8.57;;;307.60;998.40;;;;;;5013281;28;20038;-70
2021/04/09 07:28:12;;;;;;;21.40;10.85;;;307.30;998.40;;;;;;5013074;28;20029;-69
2021/04/09 07:30:40;;;;;;;13.63;7.75;;;307.60;998.40;;;;;;5013008;28;20042;-70
2021/04/09 07:33:08;;;;;;;11.50;7.43;;;307.60;972.80;;;;;;5012965;28;20018;-70
2021/04/09 07:35:53;;;;;;;23.45;11.85;;;307.90;972.80;;;;;;5013268;28;20021;-69
2021/04/09 07:38:29;;;;;;;17.50;9.77;;;307.70;998.40;;;;;;4986416;28;20026;-70
2021/04/09 07:41:03;;;;;;;18.55;9.65;;;307.80;998.40;;;;;;5013103;28;20026;-70
2021/04/09 07:43:39;;;;;;;11.35;6.65;;;307.90;972.80;;;;;;5006912;28;20026;-69
2021/04/09 07:46:07;;;;;;;12.90;6.88;;;333.00;947.20;;;;;;5012835;28;20034;-69
2021/04/09 07:48:36;;;;;;;10.63;5.53;;;333.20;947.20;;;;;;5007185;28;20045;-69
2021/04/09 07:51:04;;;;;;;13.57;6.15;;;333.30;1280.00;;;;;;4982745;28;20061;-70
2021/04/09 07:53:30;;;;;;;16.15;9.40;;;333.20;921.60;;;;;;4984757;28;20492;-69
2021/04/09 07:56:03;;;;;;;15.80;7.55;;;333.00;947.20;;;;;;4981356;28;20119;-68
2021/04/09 07:58:30;;;;;;;17.00;8.18;;;;;;;;;;4985856;28;20113;-69
2021/04/09 08:00:56;;;;;;;10.98;6.07;;;332.90;947.20;;;;;;4980674;28;20041;-70
2021/04/09 08:03:30;;;;;;;10.00;6.70;;;333.30;921.60;;;;;;4992757;28;20105;-68
2021/04/09 08:06:06;;;;;;;16.45;10.80;;;333.40;921.60;;;;;;4980661;28;20022;-70
2021/04/09 08:08:31;;;;;;;259.60;131.85;;;333.40;921.60;;;;;;4982368;28;20018;-70
2021/04/09 08:11:30;;;;;;;102.05;82.97;;;333.70;921.60;;;;;;4979220;28;20095;-69
2021/04/09 08:13:58;;;;;;;9.57;7.60;;;358.40;896.00;;;;;;4981461;28;20061;-68
2021/04/09 08:16:30;;;;;;;62.58;46.50;;;358.50;870.40;;;;;;4977490;28;20073;-69
2021/04/09 08:19:02;;;;;;;19.23;15.32;;;358.50;870.40;;;;;;4981238;28;20026;-69
2021/04/09 08:21:29;;;;;;;14.50;7.75;;;358.70;870.40;;;;;;4977364;28;20026;-70
2021/04/09 08:23:56;;;;;;;54.25;25.73;;;358.70;870.40;;;;;;4980658;28;20081;-69
2021/04/09 08:26:22;;;;;;;139.13;60.85;;;358.90;844.80;;;;;;4986776;28;20034;-66
2021/04/09 08:28:49;;;;;;;66.65;34.22;;;359.00;844.80;;;;;;5007611;28;20472;-67
2021/04/09 08:31:16;;;;;;;45.88;25.08;;;359.00;870.40;;;;;;5004401;28;20058;-69
2021/04/09 08:33:43;;;;;;;17.63;8.38;;;359.20;844.80;;;;;;5005887;28;20022;-70
2021/04/09 08:36:09;;;;;;;9.50;5.57;;;359.30;819.20;;;;;;5010508;28;20029;-68
2021/04/09 08:38:36;;;;;;;7.22;5.20;;;359.30;819.20;;;;;;5006465;28;20049;-71
2021/04/09 08:41:02;;;;;;;9.85;6.05;;;384.00;819.20;;;;;;5007603;28;20060;-67
2021/04/09 08:43:28;;;;;;;9.45;6.07;;;384.00;819.20;;;;;;5008746;28;20037;-66
2021/04/09 08:45:54;;;;;;;93.47;49.00;;;384.00;819.20;;;;;;5009159;28;20053;-69
2021/04/09 08:48:22;;;;;;;12.20;8.27;;;384.40;793.60;;;;;;5008404;28;20042;-69
2021/04/09 08:50:48;;;;;;;13.52;7.10;;;384.20;768.00;;;;;;5010915;28;20028;-70
2021/04/09 08:53:24;;;;;;;51.67;20.30;;;384.40;793.60;;;;;;4987794;28;20019;-71
2021/04/09 08:55:50;;;;;;;46.72;21.33;;;384.60;793.60;;;;;;4981527;28;20034;-73
2021/04/09 08:58:17;;;;;;;112.85;49.60;;;384.70;768.00;;;;;;4998451;28;20380;-69
2021/04/09 09:00:44;;;;;;;18.25;11.07;;;384.90;742.40;;;;;;5005214;28;20053;-72
2021/04/09 09:03:23;;;;;;;30.70;15.23;;;409.70;768.00;;;;;;4998493;28;20105;-69
2021/04/09 09:05:58;;;;;;;43.13;19.38;;;409.70;768.00;;;;;;4986698;28;20023;-69
2021/04/09 09:08:46;;;;;;;22.55;9.60;;;410.10;768.00;;;;;;4989528;28;20055;-70
2021/04/09 09:11:13;;;;;;;104.55;44.63;;;410.50;742.40;;;;;;4987750;28;20085;-74
2021/04/09 09:13:46;;;;;;;100.03;43.47;;;410.50;742.40;;;;;;4992301;28;20481;-73
2021/04/09 09:16:16;;;;;;;25.63;12.20;;;435.30;716.80;;;;;;4989466;28;20421;-73
2021/04/09 09:18:47;;;;;;;96.28;41.45;;;435.40;716.80;;;;;;4989443;28;20033;-73
2021/04/09 09:21:13;;;;;;;;;;;435.60;716.80;;;;;;4988966;28;20023;-73
2021/04/09 09:23:56;;;;;;;11.75;8.63;;;435.90;665.60;;;;;;5001709;28;19958;-69
2021/04/09 09:26:31;;;;;;;9.07;5.43;;;435.80;665.60;;;;;;4993073;28;20042;-74
2021/04/09 09:29:07;;;;;;;9.57;6.30;;;435.90;665.60;;;;;;4991720;28;20030;-72
2021/04/09 09:31:35;;;;;;;8.77;5.88;;;436.10;640.00;;;;;;4990592;28;20018;-74
2021/04/09 09:34:19;;;;;;;11.77;6.70;;;435.90;665.60;;;;;;4993074;28;20544;-73
2021/04/09 09:37:33;;;;;;;88.55;44.47;;;436.10;665.60;;;;;;4992682;28;20023;-73
2021/04/09 09:40:07;;;;;;;128.90;61.35;;;461.00;665.60;;;;;;4992883;28;20150;-73
2021/04/09 09:42:33;;;;;;;19.02;10.98;;;512.90;512.00;;;;;;5001637;28;20022;-69
2021/04/09 09:45:08;;;;;;;140.48;70.50;;;640.70;409.60;;;;;;5014963;28;20018;-73
2021/04/09 09:47:35;;;;;;;16.05;9.45;;;;;;;;;;5015023;28;20030;-70
2021/04/09 09:50:03;;;;;;;10.05;6.82;;;845.00;256.00;;;;;;5014825;28;20030;-72
2021/04/09 09:55:14;;;;;;;8.55;6.15;;;;;;;;;;4955208;29;20074;-70
2021/04/09 09:57:55;;;;;;;17.35;8.07;;;921.90;281.60;;;;;;4944512;29;20059;-68
2021/04/09 10:00:26;;;;;;;11.68;7.35;;;;;;;;;;4956353;29;20046;-69
2021/04/09 10:03:08;;;;;;;5.55;3.95;;;;;;;;;;5078407;23;20047;-71
2021/04/09 10:05:35;;;;;;;13.80;9.57;;;;;;;;;;4937122;29;20479;-72
2021/04/09 10:08:02;;;;;;;26.50;7.82;;;972.90;307.20;;;;;;4937243;29;20059;-71
2021/04/09 10:10:35;;;;;;;18.73;11.07;;;;;;;;;;4919779;29;20046;-71
2021/04/09 10:13:20;;;;;;;9.32;6.15;;;;;;;;;;4937126;29;20023;-72
2021/04/09 10:15:47;;;;;;;9.60;5.82;;;;;;;;;;4936804;29;20023;-73
2021/04/09 10:18:13;;;;;;;9.85;7.65;;;;;;;;;;4937092;29;20107;-72
2021/04/09 10:20:39;;;;;;;15.80;8.80;;;;;;;;;;4936530;29;20104;-72
2021/04/09 10:23:06;;;;;;;14.63;10.30;;;;;;;;;;4919932;29;20090;-72
2021/04/09 10:25:34;;;;;;;119.65;82.07;;;;;;;;;;4937104;29;20028;-72
2021/04/09 10:28:00;;;;;;;22.98;20.33;;;;;;;;;;4936796;29;20023;-72
2021/04/09 10:30:30;;;;;;;56.63;31.17;;;;;;;;;;4936734;29;20075;-72
2021/04/09 10:32:56;;;;;;;40.23;32.63;;;;;;;;;;4937094;29;20040;-72
2021/04/09 10:35:23;;;;;;;22.67;17.75;;;;;;;;;;4936744;29;20040;-72
2021/04/09 10:37:49;;;;;;;25.42;17.17;;;;;;;;;;4935594;29;20023;-70
2021/04/09 10:40:15;;;;;;;22.48;12.85;;;1024.40;332.80;;;;;;4936745;29;20498;-73
2021/04/09 10:42:41;;;;;;;16.88;15.07;;;1024.50;332.80;;;;;;4936569;29;20028;-71
2021/04/09 10:45:20;;;;;;;10.98;7.28;;;1024.20;332.80;;;;;;4936083;29;20106;-72
2021/04/09 10:47:46;;;;;;;11.18;8.18;;;1024.40;332.80;;;;;;4936785;29;20110;-72
2021/04/09 10:50:13;;;;;;;10.15;7.28;;;1024.20;332.80;;;;;;4936731;29;20119;-73
2021/04/09 10:52:39;;;;;;;14.40;7.38;;;1024.00;332.80;;;;;;4931952;29;20023;-69
2021/04/09 10:55:05;;;;;;;9.98;7.25;;;999.20;332.80;;;;;;4929354;29;20544;-70
2021/04/09 10:57:35;;;;;;;6.70;5.90;;;1024.30;332.80;;;;;;4936031;29;20482;-72
2021/04/09 11:00:03;;;;;;;13.32;6.90;;;999.30;332.80;;;;;;4934985;29;20039;-71
2021/04/09 11:02:29;;;;;;;48.78;9.27;;;999.20;332.80;;;;;;4931754;29;20044;-71
2021/04/09 11:04:58;;;;;;;7.28;6.18;;;999.20;332.80;;;;;;4931010;29;20035;-71
2021/04/09 11:07:40;;;;;;;9.45;6.18;;;998.90;332.80;;;;;;4930214;29;20028;-73
2021/04/09 11:10:07;;;;;;;9.95;7.20;;;973.40;307.20;;;;;;4930199;29;20036;-71
2021/04/09 11:12:33;;;;;;;10.27;6.60;;;973.50;307.20;;;;;;4930532;29;20118;-72
2021/04/09 11:15:12;;;;;;;21.92;8.13;;;998.80;332.80;;;;;;4931780;29;20151;-70
2021/04/09 11:17:39;;;;;;;8.02;6.00;;;998.90;332.80;;;;;;4930258;29;20024;-70
2021/04/09 11:20:25;;;;;;;15.95;9.10;;;998.80;332.80;;;;;;4932045;29;20035;-70
2021/04/09 11:23:07;;;;;;;16.45;14.82;;;999.10;332.80;;;;;;4931021;29;20107;-70
2021/04/09 11:25:33;;;;;;;26.77;24.55;;;;;;;;;;4921915;29;20109;-71
2021/04/09 11:27:59;;;;;;;7.22;6.05;;;947.60;281.60;;;;;;4928975;29;20016;-71
2021/04/09 11:30:24;;;;;;;10.80;7.88;;;972.90;307.20;;;;;;4926294;29;20395;-71
2021/04/09 11:32:51;;;;;;;9.20;7.65;;;;;;;;;;4909984;29;20047;-71
2021/04/09 11:35:19;;;;;;;16.08;7.90;;;948.10;281.60;;;;;;4927930;29;20031;-71
2021/04/09 11:37:49;;;;;;;24.50;10.63;;;;;;;;;;4925311;29;20087;-72
2021/04/09 11:40:17;;;;;;;11.32;7.72;;;973.60;307.20;;;;;;4928940;29;20028;-70
2021/04/09 11:42:45;;;;;;;12.43;7.00;;;;;;;;;;4920237;29;20021;-71
2021/04/09 11:45:15;;;;;;;9.63;6.55;;;973.10;307.20;;;;;;4916274;29;20164;-72
2021/04/09 11:47:42;;;;;;;9.67;6.80;;;948.10;281.60;;;;;;4916830;29;20035;-71
2021/04/09 11:50:22;;;;;;;13.93;6.88;;;947.80;281.60;;;;;;4916771;29;20286;-71
2021/04/09 11:52:52;;;;;;;13.18;7.18;;;922.10;281.60;;;;;;4916459;29;20075;-70
2021/04/09 11:55:19;;;;;;;19.08;13.20;;;;;;;;;;4916437;29;20094;-70
2021/04/09 11:57:45;;;;;;;8.98;6.72;;;871.10;256.00;;;;;;4916458;29;20020;-72
2021/04/09 12:00:18;;;;;;;16.58;13.02;;;;;;;;;;4916247;29;20039;-72
2021/04/09 12:03:14;;;;;;;16.02;12.10;;;;;;;;;;4916040;29;20529;-72
2021/04/09 12:05:40;;;;;;;9.15;7.45;;;819.40;256.00;;;;;;4876291;29;20176;-72
2021/04/09 12:08:06;;;;;;;12.48;9.15;;;819.30;256.00;;;;;;4876594;29;20235;-72
2021/04/09 12:10:35;;;;;;;19.23;13.13;;;;;;;;;;4875994;29;20045;-72
2021/04/09 12:13:02;;;;;;;39.35;27.33;;;;;;;;;;4876667;29;20173;-71
2021/04/09 12:15:28;;;;;;;11.23;7.88;;;;;;;;;;4876458;29;20085;-72
2021/04/09 12:17:55;;;;;;;52.78;29.70;;;;;;;;;;4876542;29;20025;-72
2021/04/09 12:20:24;;;;;;;7.82;6.57;;;;;;;;;;4876403;29;20040;-72
2021/04/09 12:22:50;;;;;;;9.52;6.85;;;;;;;;;;4876424;29;20287;-72
2021/04/09 12:25:17;;;;;;;8.50;6.05;;;;;;;;;;4876523;29;20026;-70
2021/04/09 12:27:43;;;;;;;11.93;8.65;;;;;;;;;;4871171;29;20041;-69
2021/04/09 12:30:12;;;;;;;17.67;10.40;;;691.40;332.80;;;;;;4873535;29;20623;-70
2021/04/09 12:32:39;;;;;;;9.07;7.50;;;666.30;307.20;;;;;;4855762;29;20036;-70
2021/04/09 12:35:08;;;;;;;11.73;7.07;;;;;;;;;;4857583;29;20038;-70
2021/04/09 12:37:35;;;;;;;6.47;5.20;;;;;;;;;;4857566;29;20170;-70
2021/04/09 12:40:01;;;;;;;28.73;11.57;;;640.70;307.20;;;;;;4858018;29;20195;-69
2021/04/09 12:42:27;;;;;;;18.75;9.02;;;665.60;332.80;;;;;;4898985;29;20063;-69
2021/04/09 12:44:53;;;;;;;29.40;17.50;;;640.50;332.80;;;;;;4915805;29;20063;-70
2021/04/09 12:47:32;;;;;;;22.30;13.77;;;;;;;;;;4915675;29;20027;-70
2021/04/09 12:49:57;;;;;;;13.63;10.60;;;665.60;332.80;;;;;;4915846;29;20044;-67
2021/04/09 12:52:26;;;;;;;13.15;8.65;;;717.10;332.80;;;;;;4915613;29;20030;-69